createdAt,value
2018-11-14T00:00:30.892Z,66.80
2018-11-14T00:03:04.786Z,66.71
2018-11-14T00:05:37.629Z,66.92
2018-11-14T00:10:53.457Z,67.37
2018-11-14T00:13:24.705Z,67.33
2018-11-14T00:15:57.652Z,67.78
2018-11-14T00:18:30.643Z,67.77
2018-11-14T00:21:03.467Z,67.84
2018-11-14T00:23:36.411Z,67.84
2018-11-14T00:26:08.252Z,67.88
2018-11-14T00:28:41.255Z,67.99
2018-11-14T00:31:14.252Z,67.69
2018-11-14T00:33:47.356Z,67.46
2018-11-14T00:36:20.455Z,67.67
2018-11-14T00:38:51.619Z,67.87
2018-11-14T00:41:24.500Z,67.62
2018-11-14T00:43:56.050Z,67.62
2018-11-14T00:46:29.096Z,67.15
2018-11-14T00:49:02.117Z,66.73
2018-11-14T00:51:35.251Z,66.79
2018-11-14T00:54:08.384Z,66.99
2018-11-14T00:56:41.385Z,66.83
2018-11-14T00:59:14.444Z,66.80
2018-11-14T01:01:47.594Z,66.65
2018-11-14T01:04:21.557Z,66.54
2018-11-14T01:06:53.251Z,66.76
2018-11-14T01:09:26.657Z,66.69
2018-11-14T01:12:00.046Z,66.99
2018-11-14T01:14:33.101Z,67.33
2018-11-14T01:17:06.135Z,67.74
2018-11-14T01:19:39.097Z,67.73
2018-11-14T01:22:12.122Z,67.74
2018-11-14T01:24:45.134Z,67.84
2018-11-14T01:27:18.065Z,67.82
2018-11-14T01:29:51.118Z,67.62
2018-11-14T01:32:24.113Z,67.05
2018-11-14T01:34:57.124Z,67.19
2018-11-14T01:37:30.123Z,67.21
2018-11-14T01:40:03.251Z,67.30
2018-11-14T01:42:36.139Z,67.47
2018-11-14T01:45:13.595Z,67.60
2018-11-14T01:47:46.628Z,67.60
2018-11-14T01:50:19.637Z,67.51
2018-11-14T01:52:52.593Z,67.48
2018-11-14T01:55:25.573Z,67.46
2018-11-14T01:57:58.401Z,67.46
2018-11-14T02:00:29.854Z,67.50
2018-11-14T02:03:02.598Z,67.97
2018-11-14T02:05:35.656Z,67.92
2018-11-14T02:08:08.618Z,67.92
2018-11-14T02:10:41.472Z,67.74
2018-11-14T02:13:14.496Z,67.48
2018-11-14T02:15:46.047Z,67.50
2018-11-14T02:18:18.678Z,67.26
2018-11-14T02:20:50.307Z,66.84
2018-11-14T02:23:23.348Z,66.47
2018-11-14T02:25:56.398Z,66.10
2018-11-14T02:28:29.464Z,66.13
2018-11-14T02:31:01.014Z,66.03
2018-11-14T02:33:34.335Z,66.21
2018-11-14T02:36:05.885Z,66.73
2018-11-14T02:38:38.771Z,66.63
2018-11-14T02:41:11.636Z,66.48
2018-11-14T02:43:44.598Z,66.59
2018-11-14T02:46:17.609Z,66.62
2018-11-14T02:48:50.671Z,66.65
2018-11-14T02:51:30.969Z,66.49
2018-11-14T02:54:04.211Z,66.49
2018-11-14T02:56:37.398Z,66.56
2018-11-14T02:59:10.408Z,66.56
2018-11-14T03:01:41.884Z,66.52
2018-11-14T03:04:14.681Z,66.87
2018-11-14T03:06:47.578Z,66.70
2018-11-14T03:09:18.883Z,66.70
2018-11-14T03:11:52.099Z,66.60
2018-11-14T03:14:25.104Z,66.43
2018-11-14T03:16:58.105Z,66.37
2018-11-14T03:19:31.136Z,66.61
2018-11-14T03:22:04.094Z,66.48
2018-11-14T03:27:24.140Z,67.04
2018-11-14T03:29:57.104Z,66.93
2018-11-14T03:32:30.094Z,67.05
2018-11-14T03:35:03.143Z,66.91
2018-11-14T03:37:36.404Z,66.64
2018-11-14T03:40:11.921Z,66.64
2018-11-14T03:42:44.594Z,66.87
2018-11-14T03:45:17.638Z,67.22
2018-11-14T03:47:50.601Z,67.13
2018-11-14T03:50:23.613Z,67.13
2018-11-14T03:52:56.502Z,66.70
2018-11-14T03:55:29.393Z,66.70
2018-11-14T03:58:00.890Z,66.42
2018-11-14T04:00:33.768Z,66.38
2018-11-14T04:03:06.619Z,66.44
2018-11-14T04:05:39.590Z,66.57
2018-11-14T04:08:10.891Z,66.57
2018-11-14T04:10:44.125Z,66.75
2018-11-14T04:13:17.117Z,66.84
2018-11-14T04:15:50.404Z,66.67
2018-11-14T04:18:21.640Z,66.67
2018-11-14T04:20:54.483Z,66.90
2018-11-14T04:23:27.351Z,66.90
2018-11-14T04:25:58.894Z,66.82
2018-11-14T04:28:32.249Z,66.80
2018-11-14T04:31:05.137Z,66.58
2018-11-14T04:33:38.128Z,66.51
2018-11-14T04:36:11.011Z,66.71
2018-11-14T04:38:44.124Z,66.82
2018-11-14T04:41:17.133Z,66.97
2018-11-14T04:43:50.155Z,66.97
2018-11-14T04:46:23.202Z,66.77
2018-11-14T04:48:56.108Z,66.69
2018-11-14T04:51:29.251Z,66.48
2018-11-14T04:54:02.151Z,66.49
2018-11-14T04:56:35.019Z,66.40
2018-11-14T04:59:07.609Z,66.21
2018-11-14T05:01:40.484Z,66.21
2018-11-14T05:04:13.406Z,66.31
2018-11-14T05:06:46.432Z,66.61
2018-11-14T05:09:19.454Z,66.88
2018-11-14T05:11:50.893Z,66.94
2018-11-14T05:14:23.940Z,66.83
2018-11-14T05:16:57.113Z,66.57
2018-11-14T05:19:30.092Z,66.61
2018-11-14T05:22:03.212Z,66.65
2018-11-14T05:24:36.515Z,65.62
2018-11-14T05:27:09.521Z,65.36
2018-11-14T05:29:42.438Z,65.27
2018-11-14T05:32:13.667Z,65.23
2018-11-14T05:34:46.584Z,65.69
2018-11-14T05:37:19.457Z,65.69
2018-11-14T05:39:50.997Z,65.63
2018-11-14T05:42:23.821Z,65.48
2018-11-14T05:44:56.672Z,66.38
2018-11-14T05:47:29.633Z,65.79
2018-11-14T05:52:17.495Z,65.57
2018-11-14T05:54:50.476Z,65.41
2018-11-14T05:57:21.895Z,65.35
2018-11-14T05:59:54.915Z,65.38
2018-11-14T06:02:27.634Z,65.98
2018-11-14T06:05:00.653Z,65.98
2018-11-14T06:07:33.625Z,66.14
2018-11-14T06:10:07.159Z,66.14
2018-11-14T06:12:40.118Z,66.23
2018-11-14T06:15:18.499Z,66.31
2018-11-14T06:17:52.464Z,66.44
2018-11-14T06:20:24.355Z,66.82
2018-11-14T06:22:55.901Z,67.00
2018-11-14T06:25:41.157Z,66.83
2018-11-14T06:28:14.021Z,66.88
2018-11-14T06:30:47.115Z,66.71
2018-11-14T06:33:20.178Z,66.81
2018-11-14T06:35:53.128Z,66.87
2018-11-14T06:38:26.158Z,66.88
2018-11-14T06:40:59.258Z,66.80
2018-11-14T06:43:32.119Z,66.88
2018-11-14T06:46:05.153Z,66.79
2018-11-14T06:48:38.259Z,66.74
2018-11-14T06:51:11.350Z,66.76
2018-11-14T06:53:44.396Z,66.80
2018-11-14T06:56:16.067Z,66.72
2018-11-14T06:58:49.165Z,66.80
2018-11-14T07:01:22.033Z,66.75
2018-11-14T07:03:55.059Z,66.60
2018-11-14T07:06:28.117Z,66.37
2018-11-14T07:09:00.993Z,66.15
2018-11-14T07:11:34.038Z,65.89
2018-11-14T07:14:07.138Z,65.87
2018-11-14T07:16:40.266Z,65.68
2018-11-14T07:19:13.265Z,65.19
2018-11-14T07:21:46.262Z,64.87
2018-11-14T07:24:19.639Z,64.52
2018-11-14T07:26:53.259Z,64.40
2018-11-14T07:29:26.264Z,64.40
2018-11-14T07:31:59.484Z,64.31
2018-11-14T07:34:30.900Z,64.39
2018-11-14T07:37:03.646Z,63.95
2018-11-14T07:39:36.627Z,63.75
2018-11-14T07:42:10.137Z,63.75
2018-11-14T07:44:43.057Z,63.48
2018-11-14T07:47:15.745Z,62.88
2018-11-14T07:49:48.627Z,62.84
2018-11-14T07:52:20.262Z,62.84
2018-11-14T07:54:53.269Z,62.99
2018-11-14T07:57:26.418Z,62.24
2018-11-14T07:59:58.037Z,61.72
2018-11-14T08:02:31.152Z,61.01
2018-11-14T08:05:04.124Z,60.83
2018-11-14T08:07:37.176Z,59.83
2018-11-14T08:10:13.179Z,58.76
2018-11-14T08:12:46.049Z,58.24
2018-11-14T08:15:19.127Z,56.86
2018-11-14T08:17:52.066Z,57.28
2018-11-14T08:20:25.157Z,57.95
2018-11-14T08:22:58.167Z,56.95
2018-11-14T08:25:31.048Z,55.06
2018-11-14T08:28:04.116Z,54.29
2018-11-14T08:30:37.228Z,54.51
2018-11-14T08:33:10.395Z,55.08
2018-11-14T08:35:41.508Z,55.08
2018-11-14T08:38:14.426Z,55.14
2018-11-14T08:40:45.903Z,53.79
2018-11-14T08:43:19.155Z,52.11
2018-11-14T08:45:52.135Z,51.19
2018-11-14T08:48:25.250Z,50.87
2018-11-14T08:50:58.263Z,51.61
2018-11-14T08:53:31.521Z,51.86
2018-11-14T08:56:04.441Z,49.69
2018-11-14T08:58:36.054Z,48.44
2018-11-14T09:01:09.136Z,47.46
2018-11-14T09:03:42.130Z,45.58
2018-11-14T09:06:15.356Z,46.35
2018-11-14T09:08:48.429Z,47.48
2018-11-14T09:11:21.538Z,46.61
2018-11-14T09:13:54.438Z,45.11
2018-11-14T09:16:27.412Z,44.08
2018-11-14T09:18:58.908Z,43.99
2018-11-14T09:21:31.680Z,43.08
2018-11-14T09:24:04.696Z,41.73
2018-11-14T09:26:37.634Z,41.71
2018-11-14T09:29:10.512Z,41.71
2018-11-14T09:31:42.265Z,41.01
2018-11-14T09:34:15.432Z,41.04
2018-11-14T09:36:46.904Z,41.09
2018-11-14T09:39:20.074Z,40.79
2018-11-14T09:41:53.147Z,40.09
2018-11-14T09:44:26.176Z,39.93
2018-11-14T09:46:59.463Z,40.85
2018-11-14T09:49:30.962Z,41.70
2018-11-14T09:52:04.164Z,42.32
2018-11-14T09:54:37.125Z,42.11
2018-11-14T09:57:10.136Z,41.04
2018-11-14T09:59:43.257Z,41.27
2018-11-14T10:02:16.473Z,40.74
2018-11-14T10:04:49.452Z,40.85
2018-11-14T10:07:20.904Z,39.68
2018-11-14T10:09:53.831Z,38.86
2018-11-14T10:12:26.650Z,38.71
2018-11-14T10:14:59.664Z,38.16
2018-11-14T10:17:32.626Z,38.53
2018-11-14T10:20:05.516Z,37.74
2018-11-14T10:22:36.911Z,37.74
2018-11-14T10:25:10.376Z,37.19
2018-11-14T10:27:42.477Z,37.35
2018-11-14T10:30:28.645Z,37.23
2018-11-14T10:33:01.491Z,37.10
2018-11-14T10:35:34.400Z,35.27
2018-11-14T10:38:05.904Z,35.27
2018-11-14T10:40:38.655Z,34.15
2018-11-14T10:43:11.529Z,35.79
2018-11-14T10:45:44.422Z,35.79
2018-11-14T10:48:17.452Z,36.11
2018-11-14T10:50:50.507Z,36.11
2018-11-14T10:53:23.413Z,36.45
2018-11-14T10:55:54.866Z,35.59
2018-11-14T10:58:28.418Z,36.33
2018-11-14T11:01:16.854Z,35.55
2018-11-14T11:04:07.371Z,34.79
2018-11-14T11:06:57.651Z,35.87
2018-11-14T11:09:48.163Z,34.03
2018-11-14T11:12:38.438Z,34.03
2018-11-14T11:15:24.255Z,33.99
2018-11-14T11:18:05.595Z,33.13
2018-11-14T11:20:38.488Z,31.03
2018-11-14T11:23:11.461Z,29.70
2018-11-14T11:25:44.452Z,30.56
2018-11-14T11:28:15.614Z,32.23
2018-11-14T11:30:48.679Z,32.25
2018-11-14T11:33:21.669Z,30.31
2018-11-14T11:35:54.637Z,30.09
2018-11-14T11:38:27.610Z,29.67
2018-11-14T11:41:00.399Z,29.67
2018-11-14T11:43:33.402Z,27.47
2018-11-14T11:48:51.455Z,30.31
2018-11-14T11:51:22.897Z,31.96
2018-11-14T11:53:55.932Z,31.96
2018-11-14T11:56:29.120Z,32.68
2018-11-14T11:59:02.421Z,33.35
2018-11-14T12:01:33.906Z,33.15
2018-11-14T12:04:07.303Z,32.58
2018-11-14T12:06:40.411Z,31.93
2018-11-14T12:09:14.454Z,32.16
2018-11-14T12:11:47.400Z,33.39
2018-11-14T12:14:20.256Z,33.31
2018-11-14T12:16:53.472Z,34.32
2018-11-14T12:19:26.450Z,34.72
2018-11-14T12:21:59.400Z,34.72
2018-11-14T12:24:32.414Z,33.18
2018-11-14T12:27:03.926Z,29.29
2018-11-14T12:29:37.114Z,25.90
2018-11-14T12:32:10.374Z,23.88
2018-11-14T12:34:41.914Z,22.20
2018-11-14T12:37:15.133Z,21.53
2018-11-14T12:39:48.453Z,20.52
2018-11-14T12:42:19.628Z,20.06
2018-11-14T12:44:52.662Z,18.31
2018-11-14T12:47:25.661Z,17.79
2018-11-14T12:49:58.775Z,17.79
2018-11-14T12:52:31.680Z,17.64
2018-11-14T12:55:04.795Z,17.01
2018-11-14T12:57:37.660Z,17.09
2018-11-14T13:00:16.212Z,17.86
2018-11-14T13:02:49.450Z,19.85
2018-11-14T13:05:22.537Z,19.85
2018-11-14T13:07:55.396Z,21.72
2018-11-14T13:10:26.734Z,24.04
2018-11-14T13:12:59.641Z,27.77
2018-11-14T13:15:32.640Z,29.44
2018-11-14T13:18:05.466Z,29.44
2018-11-14T13:20:38.482Z,31.18
2018-11-14T13:23:11.426Z,32.55
2018-11-14T13:25:44.412Z,33.27
2018-11-14T13:28:15.921Z,33.42
2018-11-14T13:30:48.969Z,33.53
2018-11-14T13:33:22.106Z,33.18
2018-11-14T13:35:55.249Z,33.18
2018-11-14T13:38:28.400Z,33.23
2018-11-14T13:41:01.401Z,32.86
2018-11-14T13:43:33.041Z,33.06
2018-11-14T13:46:06.112Z,32.41
2018-11-14T13:48:39.125Z,31.23
2018-11-14T13:51:12.333Z,30.40
2018-11-14T13:53:45.119Z,30.61
2018-11-14T13:56:18.119Z,30.92
2018-11-14T13:58:51.254Z,30.83
2018-11-14T14:01:24.354Z,31.44
2018-11-14T14:03:57.535Z,31.69
2018-11-14T14:06:29.384Z,32.47
2018-11-14T14:09:02.445Z,35.10
2018-11-14T14:11:35.444Z,35.10
2018-11-14T14:14:19.888Z,36.00
2018-11-14T14:16:52.629Z,37.45
2018-11-14T14:19:25.472Z,37.45
2018-11-14T14:21:58.399Z,38.26
2018-11-14T14:24:29.731Z,38.42
2018-11-14T14:27:02.648Z,40.33
2018-11-14T14:29:35.615Z,40.66
2018-11-14T14:32:08.600Z,40.66
2018-11-14T14:34:41.645Z,41.61
2018-11-14T14:37:14.489Z,42.69
2018-11-14T14:39:45.882Z,42.69
2018-11-14T14:42:18.970Z,42.84
2018-11-14T14:44:52.147Z,43.29
2018-11-14T14:47:25.246Z,43.78
2018-11-14T14:49:58.529Z,43.77
2018-11-14T14:52:31.597Z,44.62
2018-11-14T14:55:04.613Z,45.24
2018-11-14T14:57:37.659Z,45.64
2018-11-14T15:00:25.597Z,46.50
2018-11-14T15:02:58.588Z,46.50
2018-11-14T15:05:31.462Z,46.60
2018-11-14T15:08:02.892Z,47.16
2018-11-14T15:10:35.790Z,47.33
2018-11-14T15:13:08.635Z,47.69
2018-11-14T15:15:41.617Z,48.09
2018-11-14T15:18:14.469Z,48.57
2018-11-14T15:20:46.031Z,48.57
2018-11-14T15:23:19.123Z,49.36
2018-11-14T15:25:51.975Z,49.90
2018-11-14T15:28:24.655Z,51.02
2018-11-14T15:30:56.249Z,51.02
2018-11-14T15:33:29.140Z,51.60
2018-11-14T15:36:02.179Z,51.61
2018-11-14T15:38:35.137Z,51.85
2018-11-14T15:41:08.372Z,52.21
2018-11-14T15:43:41.394Z,52.43
2018-11-14T15:46:14.394Z,52.64
2018-11-14T15:48:45.887Z,52.96
2018-11-14T15:51:19.090Z,53.38
2018-11-14T15:53:52.042Z,53.62
2018-11-14T15:56:25.139Z,53.76
2018-11-14T15:58:58.129Z,54.07
2018-11-14T16:04:16.879Z,54.48
2018-11-14T16:06:49.908Z,54.63
2018-11-14T16:09:22.617Z,54.78
2018-11-14T16:11:55.639Z,55.41
2018-11-14T16:14:28.615Z,55.67
2018-11-14T16:17:01.639Z,55.82
2018-11-14T16:19:34.596Z,55.94
2018-11-14T16:22:07.965Z,55.94
2018-11-14T16:24:41.197Z,56.07
2018-11-14T16:27:14.233Z,56.15
2018-11-14T16:29:47.586Z,56.26
2018-11-14T16:32:20.475Z,56.69
2018-11-14T16:34:51.888Z,56.69
2018-11-14T16:37:24.635Z,56.78
2018-11-14T16:39:55.884Z,56.90
2018-11-14T16:42:28.705Z,57.11
2018-11-14T16:45:01.478Z,57.25
2018-11-14T16:47:32.884Z,57.29
2018-11-14T16:50:05.926Z,57.54
2018-11-14T16:52:38.812Z,57.70
2018-11-14T16:55:13.467Z,58.56
2018-11-14T16:57:45.345Z,58.56
2018-11-14T17:00:23.131Z,59.25
2018-11-14T17:02:56.140Z,59.31
2018-11-14T17:05:29.968Z,59.08
2018-11-14T17:08:02.915Z,59.01
2018-11-14T17:10:35.663Z,58.87
2018-11-14T17:13:08.662Z,59.48
2018-11-14T17:15:41.471Z,59.48
2018-11-14T17:18:12.885Z,59.52
2018-11-14T17:20:45.768Z,59.62
2018-11-14T17:23:18.595Z,59.65
2018-11-14T17:25:51.625Z,59.80
2018-11-14T17:28:24.455Z,59.86
2018-11-14T17:30:56.304Z,59.73
2018-11-14T17:33:29.395Z,59.46
2018-11-14T17:36:00.711Z,59.08
2018-11-14T17:38:33.602Z,59.46
2018-11-14T17:41:06.627Z,59.51
2018-11-14T17:43:39.625Z,59.58
2018-11-14T17:46:12.643Z,59.58
2018-11-14T17:48:45.646Z,59.66
2018-11-14T17:51:18.601Z,59.72
2018-11-14T17:53:51.501Z,59.72
2018-11-14T17:56:22.891Z,59.93
2018-11-14T17:58:55.655Z,60.11
2018-11-14T18:01:28.429Z,60.11
2018-11-14T18:03:59.891Z,59.99
2018-11-14T18:06:32.671Z,60.28
2018-11-14T18:09:06.243Z,60.76
2018-11-14T18:11:39.593Z,60.76
2018-11-14T18:14:12.650Z,60.95
2018-11-14T18:16:45.623Z,61.73
2018-11-14T18:19:18.606Z,61.40
2018-11-14T18:21:51.497Z,61.40
2018-11-14T18:24:22.888Z,61.36
2018-11-14T18:26:55.686Z,61.50
2018-11-14T18:29:28.647Z,62.38
2018-11-14T18:32:01.501Z,62.77
2018-11-14T18:34:33.052Z,62.77
2018-11-14T18:37:06.086Z,63.18
2018-11-14T18:39:39.223Z,63.03
2018-11-14T18:42:12.116Z,62.75
2018-11-14T18:44:45.163Z,62.66
2018-11-14T18:47:18.127Z,62.90
2018-11-14T18:49:51.160Z,63.00
2018-11-14T18:52:24.101Z,62.87
2018-11-14T18:54:57.096Z,62.90
2018-11-14T18:57:30.177Z,62.83
2018-11-14T19:00:03.214Z,62.60
2018-11-14T19:02:36.127Z,62.50
2018-11-14T19:05:09.703Z,62.69
2018-11-14T19:07:42.979Z,62.60
2018-11-14T19:10:23.985Z,62.60
2018-11-14T19:12:57.317Z,62.36
2018-11-14T19:15:34.723Z,62.16
2018-11-14T19:18:06.078Z,61.82
2018-11-14T19:20:39.136Z,61.82
2018-11-14T19:23:12.131Z,62.14
2018-11-14T19:25:45.134Z,62.23
2018-11-14T19:28:18.065Z,62.32
2018-11-14T19:30:51.221Z,62.54
2018-11-14T19:33:24.112Z,62.54
2018-11-14T19:35:57.147Z,62.33
2018-11-14T19:38:29.983Z,61.99
2018-11-14T19:41:03.075Z,62.12
2018-11-14T19:43:36.488Z,62.19
2018-11-14T19:46:08.366Z,62.26
2018-11-14T19:48:41.611Z,62.39
2018-11-14T19:51:14.511Z,62.65
2018-11-14T19:53:45.734Z,62.81
2018-11-14T19:56:18.615Z,63.28
2018-11-14T19:58:51.645Z,63.63
2018-11-14T20:01:24.602Z,63.63
2018-11-14T20:03:57.493Z,63.49
2018-11-14T20:06:28.889Z,63.49
2018-11-14T20:09:01.608Z,63.01
2018-11-14T20:11:35.131Z,62.85
2018-11-14T20:14:08.489Z,62.85
2018-11-14T20:16:39.829Z,62.94
2018-11-14T20:19:12.631Z,63.27
2018-11-14T20:21:45.610Z,63.56
2018-11-14T20:24:18.516Z,63.56
2018-11-14T20:26:49.865Z,63.82
2018-11-14T20:29:22.771Z,63.85
2018-11-14T20:31:55.691Z,63.87
2018-11-14T20:34:28.464Z,63.64
2018-11-14T20:37:01.455Z,63.64
2018-11-14T20:39:34.406Z,63.44
2018-11-14T20:42:07.633Z,63.39
2018-11-14T20:44:38.886Z,63.45
2018-11-14T20:47:11.929Z,63.57
2018-11-14T20:49:45.147Z,63.66
2018-11-14T20:52:18.142Z,63.87
2018-11-14T20:54:51.047Z,63.71
2018-11-14T20:57:24.251Z,63.71
2018-11-14T21:02:40.168Z,63.65
2018-11-14T21:05:13.784Z,63.65
2018-11-14T21:10:34.927Z,63.74
2018-11-14T21:13:08.457Z,63.78
2018-11-14T21:15:40.830Z,63.78
2018-11-14T21:18:13.659Z,63.94
2018-11-14T21:20:46.563Z,64.04
2018-11-14T21:23:19.448Z,63.63
2018-11-14T21:25:50.890Z,63.63
2018-11-14T21:28:23.978Z,63.48
2018-11-14T21:30:57.138Z,63.67
2018-11-14T21:33:29.983Z,63.67
2018-11-14T21:36:03.070Z,63.77
2018-11-14T21:38:36.495Z,63.95
2018-11-14T21:41:07.892Z,64.16
2018-11-14T21:43:40.863Z,64.04
2018-11-14T21:46:13.631Z,63.90
2018-11-14T21:48:46.602Z,63.86
2018-11-14T21:51:19.449Z,64.26
2018-11-14T21:53:50.891Z,64.38
2018-11-14T21:56:23.716Z,64.17
2018-11-14T21:58:56.615Z,63.87
2018-11-14T22:01:29.616Z,63.99
2018-11-14T22:04:01.026Z,63.99
2018-11-14T22:06:34.145Z,64.12
2018-11-14T22:09:09.413Z,64.12
2018-11-14T22:11:42.441Z,63.99
2018-11-14T22:14:15.410Z,63.98
2018-11-14T22:16:47.245Z,64.06
2018-11-14T22:19:20.480Z,63.90
2018-11-14T22:21:51.888Z,63.90
2018-11-14T22:24:24.874Z,64.14
2018-11-14T22:26:57.817Z,64.34
2018-11-14T22:29:30.600Z,64.08
2018-11-14T22:32:03.465Z,64.33
2018-11-14T22:34:34.887Z,64.33
2018-11-14T22:37:07.757Z,64.37
2018-11-14T22:39:40.825Z,64.37
2018-11-14T22:42:13.697Z,64.35
2018-11-14T22:44:46.601Z,64.15
2018-11-14T22:47:19.451Z,63.99
2018-11-14T22:49:51.098Z,63.70
2018-11-14T22:52:24.383Z,63.70
2018-11-14T22:54:57.397Z,63.98
2018-11-14T22:57:29.145Z,64.04
2018-11-14T23:01:19.650Z,63.98
2018-11-14T23:03:52.515Z,63.98
2018-11-14T23:06:23.890Z,64.27
2018-11-14T23:08:59.251Z,64.06
2018-11-14T23:11:32.744Z,64.19
2018-11-14T23:14:05.713Z,64.19
2018-11-14T23:16:37.251Z,64.19
2018-11-14T23:19:10.239Z,64.31
2018-11-14T23:21:44.973Z,64.34
2018-11-14T23:24:16.377Z,64.50
2018-11-14T23:29:23.652Z,64.61
2018-11-14T23:31:56.505Z,65.11
2018-11-14T23:34:29.376Z,65.11
2018-11-14T23:37:02.240Z,65.08
2018-11-14T23:39:35.249Z,65.39
2018-11-14T23:42:08.101Z,65.90
2018-11-14T23:44:41.253Z,65.90
2018-11-14T23:47:47.974Z,65.34
2018-11-14T23:50:25.105Z,65.06
2018-11-14T23:52:58.789Z,65.06
2018-11-14T23:55:32.354Z,65.16
2018-11-14T23:58:05.392Z,65.16
